East Aurora, New York
Current Conditions -  °F | °C
As of 7:54 PM on Thursday 27 Nov 2014 (Local Time) from KBUF Reporting Station
Light Snow Light Snow  
Wind Chill: 22°   Ceiling: 900
Heat Index: 31°   Visibility: 1.5mi
Dew Point: 28°   Wind: 12mph
Humidity: 89%   Direction: 320°NW
Pressure: 30.07"   Gusts: NA
Location:  42.77°N, 78.61°W
Report Text: KBUF 280054Z 32010KT 1 1/2SM -SN BR BKN009 OVC014 M01/M02 A3007 RMK AO2 SLP193 P0000 T10061022
Loading
Personal Weather Stations






























Interactive Weather Map New forecast layout! Learn more

10-Day Weather Forecast

Advertisements
Track Severe Weather on mobile